Time;durP1;ratioP1;P1;durP2;ratioP2;P2;SDS_P1;SDS_P2;PMS_P1;PMS_P2;Temp;Humidity;BMP_temperature;BMP_pressure;BME280_temperature;BME280_humidity;BME280_pressure;Samples;Min_cycle;Max_cycle;Signal;HPM_P1;HPM_P2
2022/11/29 00:00:39;;;;;;;158.40;41.70;;;;;;;7.28;100.00;100008.91;5011415;28;20022;-64
2022/11/29 00:03:04;;;;;;;200.82;42.88;;;;;;;7.24;100.00;100347.88;5009522;28;20103;-64
2022/11/29 00:05:33;;;;;;;169.30;39.05;;;;;;;7.20;100.00;100688.44;5011352;28;20018;-64
2022/11/29 00:07:58;;;;;;;130.60;38.60;;;;;;;7.18;100.00;101031.50;5009955;28;20045;-64
2022/11/29 00:10:24;;;;;;;126.70;38.40;;;;;;;7.18;100.00;101031.50;5011340;28;20557;-65
2022/11/29 00:12:49;;;;;;;149.13;40.10;;;;;;;7.18;100.00;101030.69;5009373;28;20046;-64
2022/11/29 00:15:14;;;;;;;138.55;43.63;;;;;;;7.20;100.00;100688.44;5005612;28;20472;-64
2022/11/29 00:17:40;;;;;;;88.38;35.42;;;;;;;7.21;100.00;100343.78;5009985;28;20054;-64
2022/11/29 00:20:06;;;;;;;100.57;40.25;;;;;;;7.21;100.00;100343.78;5009493;28;20037;-64
2022/11/29 00:22:31;;;;;;;90.40;35.35;;;;;;;7.18;100.00;99991.78;5009924;28;20128;-64
2022/11/29 00:24:56;;;;;;;103.60;37.53;;;;;;;7.20;100.00;99649.63;5011017;28;20021;-64
2022/11/29 00:27:22;;;;;;;99.80;39.38;;;;;;;7.23;100.00;99307.44;5009420;28;20226;-64
2022/11/29 00:29:47;;;;;;;109.65;40.53;;;;;;;7.23;100.00;98615.06;5010769;28;20394;-64
2022/11/29 00:32:12;;;;;;;92.07;38.67;;;;;;;7.22;100.00;98613.50;5009874;28;20046;-64
2022/11/29 00:34:38;;;;;;;115.95;39.13;;;;;;;7.21;100.00;98612.66;5010404;28;20080;-64
2022/11/29 00:37:03;;;;;;;100.70;38.38;;;;;;;7.22;100.00;97922.03;5009456;28;20103;-64
2022/11/29 00:39:28;;;;;;;120.43;40.92;;;;;;;7.23;100.00;97922.81;5010899;28;20022;-64
2022/11/29 00:41:54;;;;;;;115.90;38.17;;;;;;;7.23;100.00;97577.53;5008941;28;20042;-64
2022/11/29 00:44:19;;;;;;;96.85;37.15;;;;;;;7.25;100.00;97234.66;5010866;28;20519;-64
2022/11/29 00:46:45;;;;;;;103.35;37.75;;;;;;;7.26;100.00;96889.38;5009670;28;20560;-64
2022/11/29 00:49:10;;;;;;;96.43;37.03;;;;;;;7.26;100.00;96543.38;5010622;28;20025;-64
2022/11/29 00:51:35;;;;;;;102.22;33.60;;;;;;;7.26;100.00;96544.16;5009654;28;20396;-64
2022/11/29 00:54:01;;;;;;;105.63;36.00;;;;;;;7.27;100.00;96199.72;5010272;28;20022;-64
2022/11/29 00:56:26;;;;;;;106.00;38.70;;;;;;;7.29;100.00;96202.88;5009336;28;20041;-64
2022/11/29 00:58:52;;;;;;;88.32;35.60;;;;;;;7.28;100.00;95855.34;5010331;28;20022;-64
2022/11/29 01:01:17;;;;;;;92.55;38.53;;;;;;;7.26;100.00;96198.16;5009590;28;20088;-64
2022/11/29 01:03:43;;;;;;;99.28;35.03;;;;;;;7.27;100.00;96198.97;5010525;28;20389;-65
2022/11/29 01:06:12;;;;;;;92.68;34.55;;;;;;;7.24;100.00;96194.25;5009460;28;20034;-64
2022/11/29 01:08:38;;;;;;;84.70;34.70;;;;;;;7.25;100.00;95850.66;5010814;28;20030;-64
2022/11/29 01:11:11;;;;;;;99.68;34.90;;;;;;;7.19;100.00;95841.28;5008657;28;20406;-63
2022/11/29 01:13:37;;;;;;;107.93;39.75;;;;;;;7.26;100.00;95852.22;5010733;28;20359;-64
2022/11/29 01:16:04;;;;;;;117.72;40.22;;;;;;;7.27;100.00;95507.84;5010957;28;20045;-62
2022/11/29 01:18:30;;;;;;;110.50;34.65;;;;;;;7.27;100.00;95161.94;5013998;28;20112;-63
2022/11/29 01:21:07;;;;;;;120.43;41.83;;;;;;;7.28;100.00;95162.72;5012694;28;20049;-64
2022/11/29 01:23:34;;;;;;;159.43;46.53;;;;;;;7.33;100.00;94823.78;5014288;28;20033;-66
2022/11/29 01:26:14;;;;;;;125.00;37.75;;;;;;;7.25;100.00;95158.84;5012361;28;20034;-65
2022/11/29 01:28:40;;;;;;;173.10;43.78;;;;;;;7.24;100.00;95156.50;5014623;28;20388;-66
2022/11/29 01:31:12;;;;;;;145.23;42.80;;;;;;;7.20;100.00;95496.94;5012885;28;20042;-64
2022/11/29 01:33:38;;;;;;;199.82;45.63;;;;;;;7.13;100.00;95486.06;5013864;28;20030;-65
2022/11/29 01:36:04;;;;;;;239.88;46.88;;;;;;;7.16;100.00;95836.63;5012438;28;20080;-64
2022/11/29 01:38:30;;;;;;;283.02;48.08;;;;;;;7.13;100.00;96177.81;5014098;28;20028;-65
2022/11/29 01:40:59;;;;;;;362.08;57.83;;;;;;;7.06;100.00;96512.72;5006919;28;20021;-64
2022/11/29 01:43:26;;;;;;;291.73;48.53;;;;;;;7.08;100.00;96516.63;5013722;28;20053;-64
2022/11/29 01:45:51;;;;;;;216.63;45.53;;;;;;;7.05;100.00;96857.03;5012341;28;20026;-64
2022/11/29 01:48:17;;;;;;;268.33;50.22;;;;;;;7.07;100.00;96860.19;5012316;28;20056;-65
2022/11/29 01:50:42;;;;;;;332.02;56.28;;;;;;;7.09;100.00;96517.44;5013992;28;20079;-65
2022/11/29 01:53:12;;;;;;;294.73;50.50;;;;;;;7.12;100.00;96176.22;5012157;28;20112;-66
2022/11/29 01:55:40;;;;;;;271.75;50.08;;;;;;;7.15;100.00;95835.81;5013393;28;20488;-65
2022/11/29 01:58:07;;;;;;;272.02;47.13;;;;;;;7.15;100.00;95835.06;5011930;28;20569;-66
2022/11/29 02:00:33;;;;;;;349.23;52.58;;;;;;;7.19;100.00;95495.38;5013726;28;20033;-65
2022/11/29 02:03:07;;;;;;;419.08;58.10;;;;;;;7.23;100.00;95154.97;5011774;28;20041;-65
2022/11/29 02:05:32;;;;;;;383.17;58.63;;;;;;;7.27;100.00;94470.22;5014070;28;20377;-65
2022/11/29 02:07:58;;;;;;;159.20;38.33;;;;;;;7.22;100.00;94807.59;5011703;28;20041;-65
2022/11/29 02:10:35;;;;;;;385.65;61.33;;;;;;;7.19;100.00;94803.72;5013091;28;20026;-65
2022/11/29 02:13:31;;;;;;;297.63;51.95;;;;;;;7.17;100.00;95491.50;5011557;28;20038;-64
2022/11/29 02:16:22;;;;;;;187.68;44.22;;;;;;;7.18;100.00;95493.88;5011763;28;20030;-64
2022/11/29 02:19:22;;;;;;;292.75;53.17;;;;;;;7.15;100.00;95489.19;5012273;28;20037;-64
2022/11/29 02:22:26;;;;;;;332.48;61.47;;;;;;;7.17;100.00;95146.47;5011493;28;20049;-64
2022/11/29 02:25:23;;;;;;;315.63;56.33;;;;;;;7.19;100.00;94803.72;5012302;28;20485;-64
2022/11/29 02:28:03;;;;;;;370.92;59.08;;;;;;;7.21;100.00;94460.25;5011522;28;20068;-63
2022/11/29 02:30:54;;;;;;;208.38;54.83;;;;;;;7.23;100.00;93771.75;5013162;28;20469;-64
2022/11/29 02:33:53;;;;;;;270.27;58.80;;;;;;;7.23;100.00;93426.78;5011372;28;20053;-63
2022/11/29 02:36:53;;;;;;;293.00;56.83;;;;;;;7.23;100.00;93426.00;5011709;28;20416;-63
2022/11/29 02:39:26;;;;;;;324.90;58.55;;;;;;;7.20;100.00;93422.22;5012798;28;20022;-63
2022/11/29 02:42:47;;;;;;;326.10;61.00;;;;;;;7.20;100.00;93076.53;5011322;28;20034;-63
2022/11/29 02:45:28;;;;;;;355.05;65.60;;;;;;;7.18;100.00;93072.75;5012863;28;20672;-62
2022/11/29 02:48:03;;;;;;;287.30;57.50;;;;;;;7.16;100.00;93070.47;5010766;28;20046;-61
2022/11/29 02:50:47;;;;;;;367.67;63.15;;;;;;;7.17;100.00;92726.38;5013189;28;20519;-62
2022/11/29 02:53:35;;;;;;;314.90;60.10;;;;;;;7.21;100.00;92386.00;5011456;28;20054;-62
2022/11/29 02:56:06;;;;;;;335.75;55.83;;;;;;;7.16;100.00;92379.25;5010388;28;20053;-61
2022/11/29 02:59:00;;;;;;;284.15;57.75;;;;;;;7.17;100.00;92035.19;5012936;28;20026;-62
2022/11/29 03:01:52;;;;;;;446.45;71.20;;;;;;;7.14;100.00;92031.44;5011010;28;20048;-61
2022/11/29 03:04:48;;;;;;;473.85;80.32;;;;;;;7.13;100.00;92029.16;5012788;28;20021;-61
2022/11/29 03:07:26;;;;;;;276.15;58.67;;;;;;;7.13;100.00;91684.41;5010879;28;20038;-61
2022/11/29 03:10:07;;;;;;;385.03;69.13;;;;;;;7.12;100.00;91682.16;5011560;28;20065;-61
2022/11/29 03:12:38;;;;;;;430.35;67.53;;;;;;;7.13;100.00;91338.91;5010999;28;20049;-61
2022/11/29 03:15:30;;;;;;;374.60;66.38;;;;;;;7.13;100.00;91338.16;5012103;28;20030;-62
2022/11/29 03:18:05;;;;;;;497.42;77.13;;;;;;;7.13;100.00;90992.69;5010106;28;20107;-61
2022/11/29 03:20:33;;;;;;;361.05;65.03;;;;;;;7.14;100.00;90994.16;5012282;28;20022;-62
2022/11/29 03:23:13;;;;;;;397.33;68.73;;;;;;;7.13;100.00;90648.00;5010724;28;20412;-62
2022/11/29 03:25:59;;;;;;;301.35;59.38;;;;;;;7.15;100.00;90304.78;5011756;28;20490;-62
2022/11/29 03:28:40;;;;;;;403.38;67.90;;;;;;;7.13;100.00;90301.84;5010831;28;20033;-62
2022/11/29 03:31:25;;;;;;;377.67;71.65;;;;;;;7.12;100.00;89955.00;5010105;28;20238;-62
2022/11/29 03:34:19;;;;;;;373.30;69.32;;;;;;;7.14;100.00;89612.56;5011794;28;20045;-62
2022/11/29 03:36:54;;;;;;;407.67;67.55;;;;;;;7.14;100.00;89267.25;5010562;28;20099;-62
2022/11/29 03:39:28;;;;;;;400.85;69.90;;;;;;;7.13;100.00;89265.78;5010977;28;20060;-62
2022/11/29 03:42:01;;;;;;;322.50;67.28;;;;;;;7.18;100.00;88927.72;5005155;28;20116;-62
2022/11/29 03:44:33;;;;;;;346.73;63.38;;;;;;;7.18;100.00;88582.44;5011586;28;20439;-62
2022/11/29 03:47:13;;;;;;;421.88;76.25;;;;;;;7.17;100.00;88580.28;5009528;28;20049;-63
2022/11/29 03:49:51;;;;;;;331.05;71.50;;;;;;;7.21;100.00;88240.75;5011665;28;20497;-62
2022/11/29 03:52:32;;;;;;;435.77;78.00;;;;;;;7.21;100.00;87895.53;5010299;28;20037;-62
2022/11/29 03:55:29;;;;;;;347.60;69.22;;;;;;;7.23;100.00;87899.09;5010947;28;20030;-62
2022/11/29 03:58:35;;;;;;;377.63;64.38;;;;;;;7.22;100.00;87897.66;5009887;28;20504;-62
2022/11/29 04:01:12;;;;;;;341.27;64.55;;;;;;;7.23;100.00;87898.34;5009641;28;20026;-62
2022/11/29 04:04:08;;;;;;;342.77;64.43;;;;;;;7.23;100.00;87899.09;5011553;28;20021;-62
2022/11/29 04:06:53;;;;;;;359.00;68.80;;;;;;;7.23;100.00;87898.34;5010282;28;20100;-62
2022/11/29 04:09:46;;;;;;;291.00;61.17;;;;;;;7.23;100.00;87899.09;5010992;28;20025;-62
2022/11/29 04:12:29;;;;;;;275.00;61.63;;;;;;;7.24;100.00;87900.50;5009921;28;20042;-62
2022/11/29 04:15:29;;;;;;;267.75;54.03;;;;;;;7.22;100.00;87897.66;5010944;28;20033;-62
2022/11/29 04:18:20;;;;;;;265.52;49.55;;;;;;;7.20;100.00;87894.78;5009812;28;20404;-62
2022/11/29 04:21:04;;;;;;;265.95;58.92;;;;;;;7.20;100.00;87894.78;5007823;28;20033;-62
2022/11/29 04:24:06;;;;;;;219.07;50.92;;;;;;;7.15;100.00;88233.59;5009511;28;20049;-62
2022/11/29 04:26:53;;;;;;;149.15;37.97;;;;;;;7.11;100.00;88573.09;5009975;28;20033;-63
2022/11/29 04:29:40;;;;;;;195.40;43.35;;;;;;;7.12;100.00;88573.78;5011142;28;20589;-64
2022/11/29 04:32:43;;;;;;;197.07;39.60;;;;;;;7.11;100.00;88572.38;5009217;28;20129;-64
2022/11/29 04:35:43;;;;;;;226.52;40.85;;;;;;;7.07;100.00;88911.84;5010770;28;20032;-64
2022/11/29 04:38:29;;;;;;;166.45;36.45;;;;;;;7.06;100.00;88911.13;5009111;28;20459;-64
2022/11/29 04:41:27;;;;;;;182.23;40.63;;;;;;;7.04;100.00;89253.47;5009138;28;20034;-63
2022/11/29 04:44:09;;;;;;;191.10;37.40;;;;;;;7.02;100.00;89249.84;4991105;28;20046;-64
2022/11/29 04:46:59;;;;;;;177.60;40.60;;;;;;;7.03;100.00;89251.31;4989757;28;20049;-63
2022/11/29 04:49:31;;;;;;;159.57;36.35;;;;;;;7.03;100.00;89251.31;5006147;28;20033;-64
2022/11/29 04:52:05;;;;;;;163.50;33.70;;;;;;;7.01;100.00;89593.66;5013101;28;20088;-63
2022/11/29 04:55:01;;;;;;;175.20;32.22;;;;;;;6.96;100.00;89933.06;5014422;28;20030;-64
2022/11/29 04:57:40;;;;;;;147.68;35.88;;;;;;;6.92;100.00;90271.78;5013560;28;20096;-63
2022/11/29 05:00:12;;;;;;;149.68;33.90;;;;;;;6.92;100.00;90272.50;5014431;28;20044;-62
2022/11/29 05:02:46;;;;;;;144.77;38.50;;;;;;;6.90;100.00;90614.84;5013210;28;20092;-61
2022/11/29 05:05:44;;;;;;;148.18;39.92;;;;;;;6.85;100.00;90952.75;5014868;28;20465;-61
2022/11/29 05:08:18;;;;;;;137.18;36.17;;;;;;;6.85;100.00;90952.75;4979240;28;20053;-63
2022/11/29 05:11:10;;;;;;;182.85;37.80;;;;;;;6.85;100.00;90952.75;5014248;28;20030;-68
2022/11/29 05:14:03;;;;;;;154.90;37.47;;;;;;;6.82;100.00;91294.38;5012830;28;20061;-63
2022/11/29 05:16:52;;;;;;;173.98;35.22;;;;;;;6.84;100.00;91641.91;5004645;28;20050;-61
2022/11/29 05:19:51;;;;;;;163.55;38.03;;;;;;;6.80;100.00;91635.97;5014484;28;20117;-61
2022/11/29 05:22:54;;;;;;;190.15;43.47;;;;;;;6.77;100.00;92322.94;5014408;28;20459;-62
2022/11/29 05:25:49;;;;;;;237.13;45.38;;;;;;;6.75;100.00;92664.50;5020189;28;20026;-61
2022/11/29 05:28:23;;;;;;;174.82;39.88;;;;;;;6.75;100.00;92665.28;5012814;28;20042;-61
2022/11/29 05:31:22;;;;;;;167.93;41.67;;;;;;;6.75;100.00;92664.50;5012464;28;20033;-60
2022/11/29 05:34:10;;;;;;;185.77;37.97;;;;;;;6.70;100.00;93347.75;5014034;28;20480;-61
2022/11/29 05:36:56;;;;;;;176.57;33.58;;;;;;;6.71;100.00;93349.28;5012209;28;20049;-61
2022/11/29 05:39:46;;;;;;;192.07;34.95;;;;;;;6.66;100.00;93688.59;5019221;28;20018;-61
2022/11/29 05:42:49;;;;;;;184.23;36.72;;;;;;;6.61;100.00;94371.84;5012183;28;20056;-61
2022/11/29 05:45:27;;;;;;;185.38;39.53;;;;;;;6.58;100.00;94367.25;5012423;28;20050;-61
2022/11/29 05:48:29;;;;;;;187.63;38.35;;;;;;;6.52;100.00;94703.41;5011240;28;20295;-61
2022/11/29 05:51:27;;;;;;;195.20;34.05;;;;;;;6.51;100.00;95048.09;5011079;28;20037;-61
2022/11/29 05:54:13;;;;;;;188.95;38.92;;;;;;;6.51;100.00;94702.66;5012554;28;20048;-61
2022/11/29 05:56:50;;;;;;;161.43;37.45;;;;;;;6.49;100.00;94699.56;5011382;28;20402;-61
2022/11/29 05:59:25;;;;;;;208.90;37.53;;;;;;;6.46;100.00;95040.38;5012286;28;20523;-62
2022/11/29 06:02:14;;;;;;;180.60;36.60;;;;;;;6.49;100.00;94698.81;5010810;28;20068;-61
2022/11/29 06:04:50;;;;;;;157.55;34.83;;;;;;;6.48;100.00;94697.25;5012703;28;20052;-61
2022/11/29 06:07:25;;;;;;;171.98;35.88;;;;;;;6.46;100.00;94694.97;5007515;28;20073;-61
2022/11/29 06:10:05;;;;;;;160.00;36.80;;;;;;;6.47;100.00;94350.31;5011148;28;20022;-61
2022/11/29 06:12:34;;;;;;;158.52;36.28;;;;;;;6.47;100.00;94350.31;5010981;28;20551;-61
2022/11/29 06:15:18;;;;;;;168.05;38.60;;;;;;;6.43;100.00;94689.56;5011206;28;20067;-61
2022/11/29 06:18:17;;;;;;;198.57;38.47;;;;;;;6.40;100.00;94684.91;5008307;28;20054;-60
2022/11/29 06:20:54;;;;;;;169.65;37.58;;;;;;;6.43;100.00;94344.19;5012389;28;20026;-61
2022/11/29 06:23:41;;;;;;;165.75;31.85;;;;;;;6.45;100.00;94002.69;5010218;28;20045;-60
2022/11/29 06:26:15;;;;;;;216.43;42.90;;;;;;;6.42;100.00;94342.66;5008614;28;20101;-60
2022/11/29 06:29:00;;;;;;;224.60;41.17;;;;;;;6.46;100.00;94003.44;5031649;28;20068;-61
2022/11/29 06:31:37;;;;;;;214.63;38.67;;;;;;;6.47;100.00;93659.63;5030326;28;20037;-60
2022/11/29 06:34:08;;;;;;;276.60;41.67;;;;;;;6.48;100.00;93661.16;5031625;28;20029;-61
2022/11/29 06:36:59;;;;;;;207.90;39.63;;;;;;;6.49;100.00;93663.44;5030009;28;20052;-61
2022/11/29 06:39:24;;;;;;;188.63;38.97;;;;;;;6.51;100.00;93320.44;5031874;28;20024;-61
2022/11/29 06:41:50;;;;;;;214.68;50.17;;;;;;;6.51;100.00;92975.13;5030124;28;20037;-60
2022/11/29 06:44:15;;;;;;;206.20;40.57;;;;;;;6.50;100.00;92974.34;4994460;28;1063328;-60
2022/11/29 06:46:44;;;;;;;209.52;40.40;;;;;;;6.47;100.00;92969.84;5031090;28;20041;-60
2022/11/29 06:49:31;;;;;;;170.60;29.75;;;;;;;6.44;100.00;93310.53;5029033;28;20061;-60
2022/11/29 06:52:02;;;;;;;158.77;31.10;;;;;;;6.46;100.00;92967.53;5030543;28;20037;-60
2022/11/29 06:54:58;;;;;;;170.93;34.90;;;;;;;6.47;100.00;92969.84;5028041;28;20048;-60
2022/11/29 06:57:32;;;;;;;241.05;37.72;;;;;;;6.44;100.00;92964.53;5018452;28;20049;-61
2022/11/29 07:00:07;;;;;;;204.02;34.95;;;;;;;6.43;100.00;92963.75;5030966;28;20388;-60
2022/11/29 07:02:43;;;;;;;196.38;38.55;;;;;;;6.42;100.00;93306.75;5030330;28;20099;-60
2022/11/29 07:05:12;;;;;;;202.20;38.20;;;;;;;6.40;100.00;93304.47;5031566;28;20460;-60
2022/11/29 07:07:39;;;;;;;159.98;37.13;;;;;;;6.33;100.00;93294.59;5029185;28;20120;-60
2022/11/29 07:10:05;;;;;;;205.45;35.22;;;;;;;6.38;100.00;92956.22;5031753;28;20049;-60
2022/11/29 07:12:31;;;;;;;223.68;35.90;;;;;;;6.27;100.00;93630.69;5029865;28;20123;-60
2022/11/29 07:14:56;;;;;;;170.30;34.63;;;;;;;6.23;100.00;93624.56;5030330;28;20395;-60
2022/11/29 07:17:50;;;;;;;143.32;29.23;;;;;;;6.19;100.00;93964.41;5030651;28;20041;-60
2022/11/29 07:20:40;;;;;;;146.85;30.13;;;;;;;6.19;100.00;93619.22;5031819;28;20021;-60
2022/11/29 07:23:16;;;;;;;134.35;28.73;;;;;;;6.16;100.00;93959.03;5030233;28;20119;-61
2022/11/29 07:25:53;;;;;;;136.02;30.23;;;;;;;6.16;100.00;93614.66;5026615;28;20025;-61
2022/11/29 07:28:33;;;;;;;141.50;27.73;;;;;;;6.19;100.00;93618.47;5029949;28;20042;-60
2022/11/29 07:31:15;;;;;;;147.70;35.22;;;;;;;6.17;100.00;93616.19;5030137;28;20032;-60
2022/11/29 07:34:01;;;;;;;164.95;38.22;;;;;;;6.18;100.00;93617.69;5029349;28;20025;-60
2022/11/29 07:36:37;;;;;;;161.50;35.53;;;;;;;6.15;100.00;93957.50;5028460;28;20063;-60
2022/11/29 07:39:31;;;;;;;143.07;30.55;;;;;;;6.12;100.00;93952.94;5031412;28;20100;-60
2022/11/29 07:42:40;;;;;;;169.90;32.03;;;;;;;6.13;100.00;93609.34;4973453;28;20118;-60
2022/11/29 07:45:22;;;;;;;193.98;35.85;;;;;;;6.18;100.00;93271.81;4950646;29;20086;-60
2022/11/29 07:47:49;;;;;;;160.57;35.53;;;;;;;6.18;100.00;92927.44;4949332;28;20039;-60
2022/11/29 07:50:14;;;;;;;177.95;35.50;;;;;;;6.20;100.00;92929.72;4985648;28;20069;-60
2022/11/29 07:52:39;;;;;;;166.10;39.92;;;;;;;6.24;100.00;92589.91;5020584;28;20124;-60
2022/11/29 07:55:05;;;;;;;130.40;33.75;;;;;;;6.23;100.00;92244.06;5030879;28;20037;-60
2022/11/29 07:57:30;;;;;;;164.65;32.80;;;;;;;6.29;100.00;92253.06;5029272;28;20072;-60
2022/11/29 07:59:56;;;;;;;147.82;34.55;;;;;;;6.29;100.00;92252.34;5030986;28;20029;-60
2022/11/29 08:02:29;;;;;;;154.23;34.83;;;;;;;6.30;100.00;92254.56;5029799;28;20037;-62
2022/11/29 08:04:54;;;;;;;182.07;38.63;;;;;;;6.33;100.00;91913.97;5030848;28;20079;-61
2022/11/29 08:07:20;;;;;;;197.90;38.50;;;;;;;6.37;100.00;91918.47;5029907;28;20037;-61
2022/11/29 08:09:45;;;;;;;174.88;38.40;;;;;;;6.39;100.00;91921.44;5030745;28;20053;-61
2022/11/29 08:12:11;;;;;;;207.43;43.45;;;;;;;6.42;100.00;91580.81;5029334;28;20037;-61
2022/11/29 08:14:36;;;;;;;190.18;40.00;;;;;;;6.43;100.00;91237.22;5031060;28;20029;-61
2022/11/29 08:17:01;;;;;;;179.48;38.40;;;;;;;6.43;100.00;91582.31;5029291;28;20060;-61
2022/11/29 08:19:27;;;;;;;255.18;47.25;;;;;;;6.47;100.00;91243.91;5030864;28;20021;-61
2022/11/29 08:21:52;;;;;;;204.25;43.50;;;;;;;6.46;100.00;91241.66;5028994;28;20041;-61
2022/11/29 08:24:18;;;;;;;246.70;41.45;;;;;;;6.45;100.00;91240.94;5030781;28;20382;-61
2022/11/29 08:26:43;;;;;;;217.95;44.00;;;;;;;6.45;100.00;91240.16;5021322;28;20052;-61
2022/11/29 08:29:08;;;;;;;190.05;36.60;;;;;;;6.42;100.00;91236.47;5029826;28;20022;-62
2022/11/29 08:31:34;;;;;;;155.98;37.17;;;;;;;6.44;100.00;91238.72;5029273;28;20503;-61
2022/11/29 08:34:00;;;;;;;142.27;35.90;;;;;;;6.44;100.00;91238.72;5030436;28;20026;-61
2022/11/29 08:36:25;;;;;;;160.95;39.92;;;;;;;6.46;100.00;91241.66;5028850;28;20095;-61
2022/11/29 08:38:51;;;;;;;158.70;36.25;;;;;;;6.41;100.00;91579.34;5030444;28;20036;-61
2022/11/29 08:41:16;;;;;;;163.45;40.40;;;;;;;6.42;100.00;91235.72;5029254;28;20045;-61
2022/11/29 08:43:42;;;;;;;148.38;41.10;;;;;;;6.43;100.00;91237.22;5030013;28;20045;-61
2022/11/29 08:46:07;;;;;;;211.80;44.38;;;;;;;6.44;100.00;91238.72;5028952;28;20022;-61
2022/11/29 08:48:34;;;;;;;151.23;42.08;;;;;;;6.46;100.00;90896.56;5030756;28;20041;-61
2022/11/29 08:51:00;;;;;;;121.97;35.75;;;;;;;6.46;100.00;90896.56;5028884;28;20358;-61
2022/11/29 08:53:41;;;;;;;172.88;39.72;;;;;;;6.47;100.00;90898.06;5030589;28;20040;-61
2022/11/29 08:56:17;;;;;;;203.02;40.08;;;;;;;6.48;100.00;90554.47;5028791;28;20081;-60
2022/11/29 08:58:42;;;;;;;134.27;37.15;;;;;;;6.40;100.00;91232.75;5030607;28;20026;-60
2022/11/29 09:01:15;;;;;;;149.85;36.67;;;;;;;6.39;100.00;91232.03;5029209;28;20039;-60
2022/11/29 09:06:28;;;;;;;162.38;38.53;;;;;;;6.37;100.00;91229.06;5029078;28;20040;-60
2022/11/29 09:08:55;;;;;;;163.65;42.40;;;;;;;6.31;100.00;91220.88;5030425;28;20450;-60
2022/11/29 09:11:22;;;;;;;153.50;37.97;;;;;;;6.45;100.00;90550.03;5029001;28;20045;-60
2022/11/29 09:13:50;;;;;;;161.25;43.40;;;;;;;6.52;100.00;89870.25;5030128;28;20120;-60
2022/11/29 09:16:18;;;;;;;156.10;44.60;;;;;;;6.57;100.00;89532.53;5028920;28;20038;-60
2022/11/29 09:18:44;;;;;;;181.45;42.47;;;;;;;6.50;100.00;89868.06;5030021;28;20391;-60
2022/11/29 09:21:12;;;;;;;159.25;43.88;;;;;;;6.57;100.00;89187.53;5028614;28;20037;-60
2022/11/29 09:23:39;;;;;;;182.88;48.92;;;;;;;6.64;100.00;88852.66;5030351;28;20048;-61
2022/11/29 09:26:05;;;;;;;189.40;46.65;;;;;;;6.63;100.00;88851.19;5023177;28;20079;-60
2022/11/29 09:28:32;;;;;;;251.95;51.85;;;;;;;6.70;100.00;88514.84;5030244;28;20030;-61
2022/11/29 09:31:13;;;;;;;202.38;52.25;;;;;;;6.74;100.00;88520.59;5009864;28;20476;-60
2022/11/29 09:33:38;;;;;;;195.05;52.47;;;;;;;6.69;100.00;88513.41;5010540;28;20022;-60
2022/11/29 09:36:06;;;;;;;172.25;50.50;;;;;;;6.74;100.00;88176.31;5009498;28;20373;-60
2022/11/29 09:38:32;;;;;;;176.35;44.67;;;;;;;6.80;100.00;87839.16;5013788;28;20036;-60
2022/11/29 09:41:35;;;;;;;178.23;45.35;;;;;;;6.78;100.00;88181.31;5012222;28;20018;-60
2022/11/29 09:44:07;;;;;;;173.13;41.25;;;;;;;6.80;100.00;88184.19;5013706;28;20054;-60
2022/11/29 09:46:59;;;;;;;156.60;41.92;;;;;;;6.83;100.00;87843.44;5012692;28;20200;-60
2022/11/29 09:50:02;;;;;;;223.43;46.53;;;;;;;6.92;100.00;87511.22;5013996;28;20026;-61
2022/11/29 09:52:44;;;;;;;153.98;42.67;;;;;;;6.89;100.00;87851.28;5012608;28;20049;-60
2022/11/29 09:55:21;;;;;;;219.50;54.45;;;;;;;6.89;100.00;87851.28;5013535;28;20201;-60
2022/11/29 09:57:48;;;;;;;177.70;46.53;;;;;;;6.93;100.00;87511.91;5011906;28;20046;-60
2022/11/29 10:00:16;;;;;;;179.57;50.33;;;;;;;6.91;100.00;87854.84;5013763;28;20032;-60
2022/11/29 10:03:00;;;;;;;203.82;47.67;;;;;;;6.93;100.00;88202.06;5012393;28;20056;-60
2022/11/29 10:05:35;;;;;;;177.68;44.22;;;;;;;6.95;100.00;87860.56;5013580;28;20021;-60
2022/11/29 10:08:15;;;;;;;179.23;49.50;;;;;;;7.01;100.00;87867.69;5012063;28;20069;-60
2022/11/29 10:10:46;;;;;;;180.00;42.28;;;;;;;6.99;100.00;88210.69;5013404;28;20022;-60
2022/11/29 10:13:44;;;;;;;189.88;47.00;;;;;;;7.04;100.00;88562.28;5012122;28;20412;-60
2022/11/29 10:16:27;;;;;;;169.80;46.20;;;;;;;7.03;100.00;88906.06;5000358;28;20042;-60
2022/11/29 10:19:11;;;;;;;193.10;49.50;;;;;;;7.07;100.00;88911.84;5012965;28;20064;-60
2022/11/29 10:21:40;;;;;;;194.52;54.50;;;;;;;7.11;100.00;89262.91;5008972;28;20400;-60
2022/11/29 10:24:13;;;;;;;152.73;45.80;;;;;;;7.15;100.00;89268.69;5012850;28;20030;-60
2022/11/29 10:26:39;;;;;;;155.13;43.70;;;;;;;7.17;100.00;89271.59;5011414;28;20042;-60
2022/11/29 10:29:05;;;;;;;176.63;48.22;;;;;;;7.16;100.00;89615.47;5013235;28;20129;-60
2022/11/29 10:31:41;;;;;;;174.27;46.58;;;;;;;7.17;100.00;89616.94;5006667;28;20505;-60
2022/11/29 10:34:13;;;;;;;155.52;44.88;;;;;;;7.19;100.00;89965.22;5012401;28;20032;-60
2022/11/29 10:36:58;;;;;;;146.85;39.95;;;;;;;7.20;100.00;89966.69;5011679;28;20042;-60
2022/11/29 10:39:45;;;;;;;153.63;41.40;;;;;;;7.26;100.00;90320.19;5012993;28;20026;-61
2022/11/29 10:45:16;;;;;;;207.18;48.58;;;;;;;7.08;100.00;92367.22;5012519;28;20061;-60
2022/11/29 10:47:45;;;;;;;165.75;45.13;;;;;;;6.98;100.00;92699.22;5008073;28;20042;-60
2022/11/29 10:50:20;;;;;;;148.50;44.60;;;;;;;7.05;100.00;93053.81;5011315;28;20030;-61
2022/11/29 10:52:45;;;;;;;180.23;44.85;;;;;;;7.08;100.00;93058.38;5010940;28;20046;-60
2022/11/29 10:55:15;;;;;;;182.70;43.97;;;;;;;6.98;100.00;94080.75;5012258;28;20084;-60
2022/11/29 10:58:09;;;;;;;208.38;51.55;;;;;;;7.08;100.00;93749.63;5011057;28;20176;-60
2022/11/29 11:00:58;;;;;;;204.43;53.33;;;;;;;7.11;100.00;93408.56;5012640;28;20442;-60
2022/11/29 11:03:28;;;;;;;204.90;50.60;;;;;;;7.14;100.00;93413.09;5010996;28;20579;-60
2022/11/29 11:05:57;;;;;;;244.40;71.00;;;;;;;7.21;100.00;92732.38;5011432;28;20033;-60
2022/11/29 11:08:25;;;;;;;197.10;53.30;;;;;;;7.12;100.00;93064.41;5032327;28;20049;-61
2022/11/29 11:10:52;;;;;;;170.53;53.90;;;;;;;7.14;100.00;93067.44;5030334;28;20026;-60
2022/11/29 11:13:21;;;;;;;148.82;46.25;;;;;;;7.16;100.00;93070.47;5030420;28;20044;-60
2022/11/29 11:15:47;;;;;;;144.00;45.80;;;;;;;7.18;100.00;92727.09;5029943;28;20025;-61
2022/11/29 11:18:21;;;;;;;161.07;47.10;;;;;;;7.23;100.00;92734.63;5029458;28;20072;-61
2022/11/29 11:20:57;;;;;;;188.57;52.22;;;;;;;7.15;100.00;93414.63;5031064;28;20075;-60
2022/11/29 11:23:25;;;;;;;176.73;50.15;;;;;;;7.22;100.00;93078.81;5028856;28;20088;-60
2022/11/29 11:25:56;;;;;;;186.00;47.35;;;;;;;7.22;100.00;93771.00;5029036;28;20021;-60
2022/11/29 11:28:26;;;;;;;169.00;46.53;;;;;;;7.05;100.00;94436.38;5031101;28;20041;-60
2022/11/29 11:30:58;;;;;;;164.43;42.90;;;;;;;7.21;100.00;94115.22;5028858;28;20472;-60
2022/11/29 11:33:26;;;;;;;137.43;39.65;;;;;;;7.23;100.00;94118.28;5024820;28;20037;-60
2022/11/29 11:36:05;;;;;;;165.52;42.03;;;;;;;7.28;100.00;94125.94;5028445;28;20098;-59
2022/11/29 11:38:32;;;;;;;128.15;37.22;;;;;;;7.27;100.00;93777.88;5030305;28;20033;-60
2022/11/29 11:41:15;;;;;;;112.90;39.50;;;;;;;7.21;100.00;94461.00;5040686;28;20490;-60
2022/11/29 11:43:41;;;;;;;116.70;32.10;;;;;;;7.23;100.00;94809.91;5050672;28;20514;-60
2022/11/29 11:46:07;;;;;;;109.30;37.83;;;;;;;7.29;100.00;94472.53;5030449;28;20033;-61
2022/11/29 11:48:32;;;;;;;118.90;37.70;;;;;;;7.34;100.00;94826.09;5030748;28;20029;-61
2022/11/29 11:51:00;;;;;;;109.60;33.03;;;;;;;7.37;100.00;95175.88;5029538;28;20044;-59
2022/11/29 11:53:35;;;;;;;117.60;31.98;;;;;;;7.37;100.00;95521.84;5031157;28;20018;-59
2022/11/29 11:56:04;;;;;;;104.97;32.60;;;;;;;7.48;100.00;95538.97;5029131;28;20025;-59